»·PEaware :: N9875 KSMX-KMRY

N9875 :: KSMX-KMRY

FLIGHT INFORMATION

Flight Status: Arrived
Operator: Privately registered:
United States
More flights under this callsign
Pilot: Michael D. (22547)
Aircraft: PILATUS PC-12 EAGLE
(PC12)
More flights by this aircraft type
Origin: KSMX Santa Maria Pub/Capt Hancock
United States
Destination: KMRY Monterey Peninsula
United States
More flights between these airports :: More routes between these airports
Route: +MQO CARME
File this flight plan on PilotEdge
Remarks:
Altitude:
(Current/Filed)
12,000ft
Speed:
(Current/Filed)
230kts
Departed: 18-Aug-19 06:45 PM
Arrived: 18-Aug-19 07:34 PM
Distance/Time
Traveled:
122nm/0:49
Distance/Time
To Go:
Arrived

Flight Plot

Page will automatically refresh every two minutes.


Map Options




Map Legend


Flown Route
Filed Route
Departure Airport
Arrival Airport
Navaid (VOR, NDB)
Fix

Horizontal Profiles

Position Reports

Time Latitude Longitude Heading Altitude Ground
Speed
18-Aug-19 18:28 34.904760 -120.454539 228 265ft 0kts
18-Aug-19 18:29 34.904760 -120.454539 228 265ft 0kts
18-Aug-19 18:30 34.904760 -120.454539 228 265ft 0kts
18-Aug-19 18:31 34.904760 -120.454539 228 265ft 0kts
18-Aug-19 18:32 34.904760 -120.454539 228 265ft 0kts
18-Aug-19 18:33 34.904760 -120.454539 228 265ft 0kts
18-Aug-19 18:34 34.904760 -120.454539 228 265ft 0kts
18-Aug-19 18:35 34.904760 -120.454539 228 265ft 0kts
18-Aug-19 18:36 34.904760 -120.454539 228 265ft 0kts
18-Aug-19 18:37 34.904760 -120.454539 228 265ft 0kts
18-Aug-19 18:38 34.904760 -120.454539 228 265ft 0kts
18-Aug-19 18:39 34.904009 -120.455608 224 265ft 0kts
18-Aug-19 18:40 34.903824 -120.456245 215 265ft 8kts
18-Aug-19 18:41 34.899726 -120.451644 131 265ft 26kts
18-Aug-19 18:42 34.894472 -120.445669 170 265ft 18kts
18-Aug-19 18:43 34.893788 -120.445630 183 265ft 0kts
18-Aug-19 18:44 34.894283 -120.447655 316 265ft 51kts
18-Aug-19 18:45 34.917018 -120.463950 16 1147ft 135kts
18-Aug-19 18:46 34.918202 -120.420980 112 2770ft 148kts
18-Aug-19 18:47 34.902736 -120.374414 118 4370ft 150kts
18-Aug-19 18:48 34.872777 -120.341530 162 5946ft 144kts
18-Aug-19 18:49 34.843649 -120.353173 278 7431ft 145kts
18-Aug-19 18:50 34.879932 -120.374301 345 8857ft 158kts
18-Aug-19 18:51 34.920015 -120.395124 323 10266ft 159kts
18-Aug-19 18:52 34.954670 -120.429147 316 11634ft 162kts
18-Aug-19 18:53 34.992197 -120.470098 316 12021ft 209kts
18-Aug-19 18:54 35.033655 -120.515832 315 13311ft 180kts
18-Aug-19 18:55 35.067181 -120.553102 314 15074ft 149kts
18-Aug-19 18:56 35.094521 -120.583274 314 16819ft 116kts
18-Aug-19 18:57 35.121508 -120.615579 310 17498ft 163kts
18-Aug-19 18:58 35.158989 -120.655989 314 17996ft 200kts
18-Aug-19 18:59 35.203604 -120.705443 314 17992ft 229kts
18-Aug-19 19:00 35.251873 -120.758821 318 17990ft 238kts
18-Aug-19 19:01 35.305311 -120.808208 320 17990ft 241kts
18-Aug-19 19:02 35.359160 -120.857523 320 17990ft 242kts
18-Aug-19 19:03 35.413182 -120.907070 320 17982ft 243kts
18-Aug-19 19:04 35.467235 -120.956731 320 17973ft 243kts
18-Aug-19 19:05 35.521504 -121.006645 320 17964ft 244kts
18-Aug-19 19:06 35.575677 -121.056587 319 17963ft 244kts
18-Aug-19 19:07 35.630210 -121.106954 319 17963ft 246kts
18-Aug-19 19:08 35.684902 -121.157557 319 17963ft 247kts
18-Aug-19 19:09 35.740066 -121.208689 319 17963ft 249kts
18-Aug-19 19:10 35.795262 -121.259956 319 17964ft 249kts
18-Aug-19 19:11 35.850698 -121.311519 319 17964ft 249kts
18-Aug-19 19:12 35.905967 -121.363016 319 17972ft 249kts
18-Aug-19 19:13 35.961228 -121.414601 319 17986ft 249kts
18-Aug-19 19:14 36.017302 -121.467071 319 17362ft 262kts
18-Aug-19 19:15 36.077018 -121.522995 319 15727ft 274kts
18-Aug-19 19:16 36.137568 -121.579806 320 14113ft 273kts
18-Aug-19 19:17 36.193309 -121.641518 314 12529ft 268kts
18-Aug-19 19:18 36.246974 -121.704445 313 10983ft 263kts
18-Aug-19 19:19 36.299558 -121.766140 313 9474ft 258kts
18-Aug-19 19:20 36.350978 -121.826515 313 8000ft 253kts
18-Aug-19 19:21 36.401353 -121.885738 313 6555ft 245kts
18-Aug-19 19:22 36.447831 -121.940105 313 5997ft 208kts
18-Aug-19 19:24 36.489025 -121.987802 313 6002ft 211kts
18-Aug-19 19:25 36.536280 -122.043374 313 4727ft 250kts
18-Aug-19 19:26 36.584846 -122.100848 313 3106ft 233kts
18-Aug-19 19:27 36.629135 -122.150658 337 2593ft 195kts
18-Aug-19 19:28 36.656684 -122.106953 79 2600ft 186kts
18-Aug-19 19:29 36.653117 -122.042682 112 2599ft 188kts
18-Aug-19 19:30 36.634098 -121.984252 114 2070ft 172kts
18-Aug-19 19:31 36.618339 -121.936973 116 980ft 123kts
18-Aug-19 19:32 36.608646 -121.907675 119 334ft 98kts
18-Aug-19 19:33 36.595500 -121.869568 116 440ft 115kts
18-Aug-19 19:34 36.587458 -121.847547 203 186ft 10kts

Navigation Log

Ident Type
Flight plan parsing failed, navigation log unavailable